Time;durP1;ratioP1;P1;durP2;ratioP2;P2;SDS_P1;SDS_P2;PMS_P1;PMS_P2;Temp;Humidity;BMP_temperature;BMP_pressure;BME280_temperature;BME280_humidity;BME280_pressure;Samples;Min_cycle;Max_cycle;Signal;HPM_P1;HPM_P2
2022/04/05 00:00:02;;;;;;;8.20;7.40;;;7.10;1.00;7.50;99617.00;;;;5095252;28;20457;-78
2022/04/05 00:02:31;;;;;;;10.20;8.10;;;7.10;1.00;7.60;99600.00;;;;5096328;28;20446;-76
2022/04/05 00:05:00;;;;;;;9.60;8.57;;;7.20;1.00;7.60;99607.00;;;;5095799;28;20434;-77
2022/04/05 00:07:29;;;;;;;8.90;8.00;;;7.10;1.00;7.60;99609.00;;;;5091708;28;20473;-76
2022/04/05 00:09:57;;;;;;;8.73;7.90;;;7.20;1.00;7.60;99588.00;;;;5094185;28;20460;-77
2022/04/05 00:12:25;;;;;;;8.63;7.93;;;7.20;1.00;7.60;99606.00;;;;5091785;28;20457;-76
2022/04/05 00:14:54;;;;;;;7.23;6.50;;;7.20;1.00;7.70;99587.00;;;;5094574;28;20522;-77
2022/04/05 00:17:23;;;;;;;7.20;6.60;;;7.30;1.00;7.70;99596.00;;;;5096803;28;20830;-77
2022/04/05 00:19:52;;;;;;;9.33;7.17;;;7.30;1.00;7.70;99596.00;;;;5098903;28;20457;-77
2022/04/05 00:22:20;;;;;;;6.90;6.30;;;7.30;1.00;7.70;99576.00;;;;5093421;28;20477;-78
2022/04/05 00:24:48;;;;;;;9.60;8.60;;;7.30;1.00;7.80;99590.00;;;;5096969;28;20445;-78
2022/04/05 00:27:16;;;;;;;9.43;8.50;;;7.40;1.00;7.80;99589.00;;;;5091613;28;20506;-78
2022/04/05 00:29:45;;;;;;;8.27;7.57;;;7.40;1.00;7.80;99592.00;;;;5109656;28;20833;-77
2022/04/05 00:32:14;;;;;;;9.07;8.17;;;7.40;1.00;7.70;99612.00;;;;5098969;28;20486;-78
2022/04/05 00:34:43;;;;;;;6.13;5.53;;;7.30;1.00;7.70;99589.00;;;;5106579;28;20461;-78
2022/04/05 00:37:12;;;;;;;8.33;7.50;;;7.30;1.00;7.50;99598.00;;;;5098994;28;20470;-78
2022/04/05 00:39:40;;;;;;;8.67;7.80;;;7.40;1.00;7.50;99600.00;;;;5100546;28;20883;-78
2022/04/05 00:42:11;;;;;;;6.87;6.20;;;7.10;1.00;7.40;99583.00;;;;5116138;27;20985;-80
2022/04/05 00:44:39;;;;;;;8.90;7.47;;;7.00;1.00;7.40;99601.00;;;;5099242;28;21293;-77
2022/04/05 00:47:17;;;;;;;9.10;8.20;;;7.00;1.00;7.40;99594.00;;;;5098736;28;20468;-77
2022/04/05 00:49:48;;;;;;;9.00;8.10;;;7.00;1.00;7.40;99611.00;;;;5096088;28;20453;-78
2022/04/05 00:52:18;;;;;;;8.60;6.93;;;7.00;1.00;7.40;99607.00;;;;5094877;28;20465;-79
2022/04/05 00:54:49;;;;;;;8.87;8.00;;;7.00;1.00;7.40;99579.00;;;;5098331;28;20560;-80
2022/04/05 00:57:19;;;;;;;8.60;7.83;;;6.90;1.00;7.40;99597.00;;;;5094589;28;20480;-80
2022/04/05 00:59:51;;;;;;;6.63;5.93;;;7.00;1.00;7.30;99562.00;;;;5095980;28;20452;-82
2022/04/05 01:02:21;;;;;;;8.53;7.30;;;7.00;1.00;7.30;99583.00;;;;5109918;27;20981;-82
2022/04/05 01:04:51;;;;;;;7.53;6.83;;;6.90;1.00;7.40;99579.00;;;;5092852;28;20895;-79
2022/04/05 01:07:22;;;;;;;8.77;7.97;;;7.00;1.00;7.40;99583.00;;;;5094311;28;20493;-82
2022/04/05 01:09:53;;;;;;;9.37;8.47;;;7.00;1.00;7.40;99557.00;;;;5096072;28;20501;-82
2022/04/05 01:12:23;;;;;;;9.03;8.20;;;7.00;1.00;7.40;99570.00;;;;5093336;28;20478;-81
2022/04/05 01:14:53;;;;;;;8.80;8.00;;;7.00;1.00;7.30;99578.00;;;;5095640;28;20505;-78
2022/04/05 01:17:21;;;;;;;8.80;8.00;;;6.90;1.00;7.30;99585.00;;;;5093945;28;20481;-78
2022/04/05 01:19:52;;;;;;;8.87;8.03;;;6.90;1.00;7.30;99569.00;;;;5093255;28;20450;-78
2022/04/05 01:22:20;;;;;;;9.60;8.60;;;6.90;1.00;7.30;99566.00;;;;5091538;28;20457;-77
2022/04/05 01:24:51;;;;;;;8.03;7.37;;;6.90;1.00;7.30;99545.00;;;;5094214;28;20987;-78
2022/04/05 01:27:19;;;;;;;7.97;7.23;;;6.90;1.00;7.30;99557.00;;;;5094333;28;20474;-80
2022/04/05 01:29:48;;;;;;;7.47;6.10;;;7.00;1.00;7.30;99582.00;;;;5099315;28;20539;-78
2022/04/05 01:32:17;;;;;;;8.57;7.63;;;6.90;1.00;7.40;99569.00;;;;5098719;28;20441;-81
2022/04/05 01:34:45;;;;;;;8.80;7.90;;;7.00;1.00;7.40;99566.00;;;;5095431;28;20453;-78
2022/04/05 01:37:13;;;;;;;9.00;8.20;;;7.00;1.00;7.40;99589.00;;;;5105213;28;20496;-79
2022/04/05 01:39:43;;;;;;;7.53;6.83;;;7.00;1.00;7.40;99564.00;;;;5115103;28;20450;-79
2022/04/05 01:42:14;;;;;;;8.47;7.53;;;7.20;1.00;7.40;99555.00;;;;5100995;28;20457;-78
2022/04/05 01:44:44;;;;;;;8.60;7.80;;;7.10;1.00;7.40;99567.00;;;;5092695;28;20454;-78
2022/04/05 01:47:15;;;;;;;7.80;7.10;;;7.10;1.00;7.40;99561.00;;;;5105522;28;20454;-76
2022/04/05 01:49:46;;;;;;;8.07;7.37;;;7.10;1.00;7.50;99532.00;;;;5113521;27;20835;-76
2022/04/05 01:52:14;;;;;;;8.30;7.50;;;7.30;1.00;7.40;99560.00;;;;5098699;28;20450;-77
2022/04/05 01:54:42;;;;;;;9.70;8.03;;;7.00;1.00;7.40;99547.00;;;;5097004;28;20450;-77
2022/04/05 01:57:13;;;;;;;9.27;8.23;;;7.00;1.00;7.30;99541.00;;;;5114281;27;20470;-77
2022/04/05 01:59:42;;;;;;;8.40;7.70;;;6.90;1.00;7.30;99554.00;;;;5110295;27;20450;-78
2022/04/05 02:02:12;;;;;;;9.47;8.53;;;6.90;1.00;7.30;99541.00;;;;5096975;28;20988;-77
2022/04/05 02:04:41;;;;;;;7.50;6.30;;;6.90;1.00;7.20;99552.00;;;;5096605;28;20473;-78
2022/04/05 02:07:12;;;;;;;9.03;8.23;;;6.90;1.00;7.20;99555.00;;;;5096676;28;20561;-77
2022/04/05 02:09:42;;;;;;;13.20;9.13;;;6.80;1.00;7.10;99552.00;;;;5103229;28;20481;-77
2022/04/05 02:12:12;;;;;;;13.30;8.77;;;6.80;1.00;7.10;99546.00;;;;5109966;27;20457;-77
2022/04/05 02:14:56;;;;;;;9.23;8.43;;;6.80;1.00;7.10;99553.00;;;;5098964;28;20481;-77
2022/04/05 02:17:35;;;;;;;9.30;8.07;;;6.80;1.00;7.20;99547.00;;;;5106487;27;20589;-77
2022/04/05 02:20:09;;;;;;;8.17;7.33;;;6.80;1.00;7.20;99553.00;;;;5096375;28;20450;-77
2022/04/05 02:22:39;;;;;;;10.30;9.30;;;6.80;1.00;7.20;99551.00;;;;5095533;28;20988;-78
2022/04/05 02:25:17;;;;;;;9.30;8.37;;;6.80;1.00;7.20;99564.00;;;;5099225;28;20514;-77
2022/04/05 02:27:48;;;;;;;9.23;8.43;;;6.80;1.00;7.20;99548.00;;;;5116575;27;20466;-77
2022/04/05 02:30:22;;;;;;;9.70;8.40;;;6.90;1.00;7.20;99541.00;;;;5115260;27;20506;-78
2022/04/05 02:32:55;;;;;;;9.43;8.53;;;6.90;1.00;7.20;99548.00;;;;5089620;28;20544;-77
2022/04/05 02:35:25;;;;;;;9.53;8.70;;;6.90;1.00;7.20;99545.00;;;;5106150;28;20445;-77
2022/04/05 02:37:53;;;;;;;9.23;8.33;;;6.80;1.00;7.20;99548.00;;;;5103569;28;20465;-77
2022/04/05 02:40:23;;;;;;;9.17;8.30;;;6.80;1.00;7.10;99553.00;;;;5105842;27;20453;-78
2022/04/05 02:42:57;;;;;;;8.63;7.73;;;6.80;1.00;7.10;99541.00;;;;5093996;28;20453;-76
2022/04/05 02:45:26;;;;;;;7.97;7.27;;;6.80;1.00;7.20;99538.00;;;;5090945;28;20445;-77
2022/04/05 02:47:55;;;;;;;8.37;7.57;;;6.80;1.00;7.20;99545.00;;;;5076821;28;20474;-77
2022/04/05 02:50:25;;;;;;;9.00;8.20;;;6.80;1.00;7.20;99547.00;;;;5089483;28;20501;-79
2022/04/05 02:52:55;;;;;;;8.87;8.10;;;6.90;1.00;7.20;99554.00;;;;5111284;27;20482;-79
2022/04/05 02:55:24;;;;;;;7.93;7.13;;;6.90;1.00;7.20;99557.00;;;;5078120;28;20451;-81
2022/04/05 02:57:53;;;;;;;8.80;8.00;;;6.90;1.00;7.30;99545.00;;;;5077343;28;20481;-77
2022/04/05 03:00:31;;;;;;;10.10;9.13;;;6.90;1.00;7.30;99545.00;;;;5093513;28;20454;-78
2022/04/05 03:03:03;;;;;;;8.67;7.97;;;6.90;1.00;7.30;99548.00;;;;5087540;28;20865;-79
2022/04/05 03:05:32;;;;;;;7.47;6.87;;;7.00;1.00;7.30;99540.00;;;;5089608;28;20861;-79
2022/04/05 03:08:05;;;;;;;7.97;7.17;;;7.00;1.00;7.30;99553.00;;;;5092270;28;20473;-79
2022/04/05 03:10:36;;;;;;;9.40;7.63;;;6.90;1.00;7.30;99550.00;;;;5107837;27;20469;-79
2022/04/05 03:13:07;;;;;;;9.00;8.10;;;6.90;1.00;7.30;99552.00;;;;5108137;27;20493;-82
2022/04/05 03:15:37;;;;;;;8.17;7.47;;;6.90;1.00;7.30;99569.00;;;;5091417;28;20456;-78
2022/04/05 03:18:06;;;;;;;8.10;7.40;;;7.20;1.00;7.30;99556.00;;;;5094529;28;20465;-80
2022/04/05 03:20:35;;;;;;;7.50;6.70;;;6.90;1.00;7.30;99555.00;;;;5108663;27;20446;-77
2022/04/05 03:23:04;;;;;;;7.00;6.40;;;6.90;1.00;7.30;99549.00;;;;5092179;28;20499;-77
2022/04/05 03:25:32;;;;;;;8.63;7.77;;;6.90;1.00;7.30;99543.00;;;;5092286;28;20566;-77
2022/04/05 03:28:02;;;;;;;8.00;7.20;;;7.00;1.00;7.30;99549.00;;;;5093207;28;20518;-77
2022/04/05 03:30:32;;;;;;;8.03;7.33;;;7.00;1.00;7.30;99553.00;;;;5096842;28;21423;-78
2022/04/05 03:33:04;;;;;;;8.30;7.60;;;7.00;1.00;7.30;99549.00;;;;5095334;28;20525;-78
2022/04/05 03:35:34;;;;;;;7.83;7.13;;;7.00;1.00;7.30;99549.00;;;;5099233;28;20514;-77
2022/04/05 03:38:04;;;;;;;8.20;6.03;;;7.00;1.00;7.30;99528.00;;;;5097017;28;20823;-77
2022/04/05 03:40:33;;;;;;;9.00;8.20;;;7.00;1.00;7.30;99549.00;;;;5093146;28;20458;-78
2022/04/05 03:43:04;;;;;;;7.70;7.00;;;7.00;1.00;7.30;99543.00;;;;5101294;28;20450;-78
2022/04/05 03:45:32;;;;;;;7.73;6.90;;;6.90;1.00;7.20;99531.00;;;;5101792;28;20472;-77
2022/04/05 03:48:03;;;;;;;7.87;7.10;;;6.90;1.00;7.20;99560.00;;;;5086087;28;20534;-78
2022/04/05 03:50:32;;;;;;;7.60;6.83;;;6.80;1.00;7.20;99533.00;;;;5104008;28;20494;-78
2022/04/05 03:53:02;;;;;;;7.90;6.90;;;6.80;1.00;7.20;99541.00;;;;5097593;28;20446;-77
2022/04/05 03:55:33;;;;;;;6.27;5.63;;;6.90;1.00;7.30;99538.00;;;;5098811;28;21262;-77
2022/04/05 03:58:05;;;;;;;7.47;6.40;;;6.90;1.00;7.30;99538.00;;;;5103932;28;20464;-79
2022/04/05 04:00:35;;;;;;;4.67;4.20;;;6.90;1.00;7.30;99541.00;;;;5120529;28;20455;-79
2022/04/05 04:03:14;;;;;;;6.63;6.03;;;7.00;1.00;7.30;99540.00;;;;5103641;28;20509;-78
2022/04/05 04:05:42;;;;;;;6.70;6.03;;;7.00;1.00;7.40;99550.00;;;;5108148;28;20473;-77
2022/04/05 04:08:12;;;;;;;7.10;6.40;;;7.00;1.00;7.40;99542.00;;;;5110724;28;20454;-76
2022/04/05 04:10:42;;;;;;;7.20;6.60;;;7.10;1.00;7.40;99555.00;;;;5111321;28;20467;-77
2022/04/05 04:13:10;;;;;;;6.63;6.03;;;7.10;1.00;7.40;99541.00;;;;5122230;28;20899;-77
2022/04/05 04:15:43;;;;;;;6.73;5.60;;;7.10;1.00;7.40;99537.00;;;;5102106;28;20481;-78
2022/04/05 04:18:13;;;;;;;6.53;5.93;;;7.10;1.00;7.50;99527.00;;;;5114768;27;20465;-77
2022/04/05 04:20:44;;;;;;;7.20;6.57;;;7.10;1.00;7.50;99532.00;;;;5082056;28;20461;-77
2022/04/05 04:23:17;;;;;;;6.93;6.33;;;7.10;1.00;7.40;99528.00;;;;5100878;28;20499;-77
2022/04/05 04:25:50;;;;;;;6.97;6.37;;;7.10;1.00;7.40;99528.00;;;;5098694;28;20453;-76
2022/04/05 04:28:20;;;;;;;7.40;6.70;;;7.10;1.00;7.40;99522.00;;;;5099405;28;20444;-77
2022/04/05 04:30:49;;;;;;;7.97;7.27;;;7.00;1.00;7.40;99540.00;;;;5099129;28;20461;-77
2022/04/05 04:33:19;;;;;;;6.90;6.30;;;7.00;1.00;7.40;99536.00;;;;5098502;28;20470;-75
2022/04/05 04:35:48;;;;;;;6.90;6.30;;;7.00;1.00;7.40;99514.00;;;;5103303;28;20993;-76
2022/04/05 04:38:17;;;;;;;6.00;4.93;;;7.10;1.00;7.40;99540.00;;;;5097061;28;20453;-76
2022/04/05 04:40:47;;;;;;;6.80;6.20;;;7.10;1.00;7.30;99535.00;;;;5097682;28;20541;-77
2022/04/05 04:43:16;;;;;;;7.17;6.50;;;7.10;1.00;7.50;99540.00;;;;5093757;28;20465;-77
2022/04/05 04:45:45;;;;;;;6.37;5.87;;;7.10;1.00;7.50;99538.00;;;;5094900;28;20939;-77
2022/04/05 04:48:14;;;;;;;6.40;5.80;;;7.10;1.00;7.50;99522.00;;;;5095083;28;20454;-77
2022/04/05 04:50:44;;;;;;;6.10;5.50;;;7.20;1.00;7.50;99536.00;;;;5097162;28;20465;-77
2022/04/05 04:53:12;;;;;;;4.90;4.50;;;7.20;1.00;7.60;99536.00;;;;5093603;28;20859;-77
2022/04/05 04:55:40;;;;;;;7.07;6.10;;;7.30;1.00;7.70;99537.00;;;;5107129;27;20461;-77
2022/04/05 04:58:29;;;;;;;6.17;5.60;;;7.30;1.00;7.70;99551.00;;;;5095384;28;20506;-78
2022/04/05 05:00:57;;;;;;;5.80;4.80;;;7.30;1.00;7.70;99518.00;;;;5092069;28;20452;-77
2022/04/05 05:03:26;;;;;;;6.40;5.80;;;7.40;1.00;7.70;99547.00;;;;5091150;28;20458;-77
2022/04/05 05:05:57;;;;;;;7.87;6.60;;;7.40;1.00;7.80;99540.00;;;;5097099;28;20505;-77
2022/04/05 05:08:25;;;;;;;6.60;6.00;;;7.40;1.00;7.90;99557.00;;;;5096863;28;20464;-77
2022/04/05 05:10:54;;;;;;;6.43;5.83;;;7.50;1.00;7.80;99546.00;;;;5100278;28;20466;-77
2022/04/05 05:13:22;;;;;;;6.90;6.07;;;7.50;1.00;7.80;99553.00;;;;5096999;28;20449;-77
2022/04/05 05:15:51;;;;;;;6.37;5.77;;;7.50;1.00;7.80;99546.00;;;;5097658;28;20453;-77
2022/04/05 05:18:19;;;;;;;6.40;5.90;;;7.50;1.00;7.80;99544.00;;;;5098240;28;20446;-77
2022/04/05 05:20:48;;;;;;;7.20;6.60;;;7.50;1.00;7.80;99550.00;;;;5105637;28;20445;-77
2022/04/05 05:23:17;;;;;;;8.23;5.97;;;7.40;1.00;7.80;99543.00;;;;5102786;28;20456;-77
2022/04/05 05:25:47;;;;;;;6.30;5.70;;;7.40;1.00;7.80;99555.00;;;;5090044;28;20824;-76
2022/04/05 05:28:16;;;;;;;7.30;6.60;;;7.40;1.00;7.80;99551.00;;;;5095118;28;20451;-77
2022/04/05 05:30:44;;;;;;;7.20;6.50;;;7.40;1.00;7.80;99552.00;;;;5094311;28;20461;-76
2022/04/05 05:33:13;;;;;;;6.93;6.33;;;7.40;1.00;7.80;99551.00;;;;5099360;27;20449;-77
2022/04/05 05:35:41;;;;;;;6.93;6.33;;;7.40;1.00;7.80;99567.00;;;;5096573;28;20472;-78
2022/04/05 05:38:10;;;;;;;6.67;6.07;;;7.50;1.00;7.80;99551.00;;;;5096674;28;20450;-77
2022/04/05 05:40:39;;;;;;;7.40;6.80;;;7.50;1.00;7.80;99566.00;;;;5095428;28;20459;-79
2022/04/05 05:43:09;;;;;;;7.90;7.20;;;7.50;1.00;7.80;99562.00;;;;5097214;28;20448;-77
2022/04/05 05:45:38;;;;;;;7.47;6.87;;;7.50;1.00;7.80;99569.00;;;;5100117;28;20453;-77
2022/04/05 05:48:08;;;;;;;7.13;6.53;;;7.50;1.00;7.80;99567.00;;;;5100517;28;20497;-77
2022/04/05 05:50:37;;;;;;;7.50;6.33;;;7.50;1.00;7.80;99579.00;;;;5099801;28;20473;-78
2022/04/05 05:53:06;;;;;;;7.37;6.57;;;7.50;1.00;7.80;99580.00;;;;5100773;28;20577;-78
2022/04/05 05:56:00;;;;;;;7.60;6.90;;;7.50;1.00;7.90;99579.00;;;;5101282;28;20477;-80
2022/04/05 05:58:29;;;;;;;7.20;6.50;;;7.50;1.00;7.90;99578.00;;;;5094325;28;20461;-77
2022/04/05 06:00:57;;;;;;;7.30;6.60;;;7.50;1.00;7.90;99577.00;;;;5115164;28;20458;-75
2022/04/05 06:03:25;;;;;;;7.70;7.00;;;7.50;1.00;7.90;99595.00;;;;5111306;28;20531;-77
2022/04/05 06:05:54;;;;;;;7.80;6.90;;;7.60;1.00;8.00;99598.00;;;;5102765;28;21012;-76
2022/04/05 06:08:23;;;;;;;7.30;6.60;;;7.60;1.00;8.00;99580.00;;;;5101864;28;20477;-77
2022/04/05 06:10:52;;;;;;;7.07;6.47;;;7.70;1.00;7.90;99578.00;;;;5102997;28;20564;-76
2022/04/05 06:13:22;;;;;;;7.20;6.60;;;7.70;1.00;8.00;99601.00;;;;5102509;28;20563;-77
2022/04/05 06:15:51;;;;;;;7.67;6.97;;;7.60;1.00;8.00;99602.00;;;;5101205;28;20467;-76
2022/04/05 06:18:19;;;;;;;7.90;7.17;;;7.60;1.00;8.00;99593.00;;;;5097739;28;20561;-78
2022/04/05 06:20:47;;;;;;;7.03;6.43;;;7.70;1.00;8.00;99615.00;;;;5100564;28;20896;-77
2022/04/05 06:23:16;;;;;;;7.57;6.87;;;7.90;1.00;8.00;99608.00;;;;5099137;28;20486;-77
2022/04/05 06:25:45;;;;;;;7.60;7.00;;;7.70;1.00;8.10;99619.00;;;;5098206;28;20458;-77
2022/04/05 06:28:15;;;;;;;8.27;6.83;;;7.70;1.00;8.10;99613.00;;;;5107352;28;20476;-77
2022/04/05 06:30:46;;;;;;;8.30;7.60;;;7.70;1.00;8.10;99627.00;;;;5106071;28;20453;-77
2022/04/05 06:33:17;;;;;;;8.87;8.07;;;7.90;1.00;8.10;99628.00;;;;5107032;28;20449;-77
2022/04/05 06:35:51;;;;;;;10.17;8.87;;;7.70;1.00;8.10;99625.00;;;;5110344;28;20460;-78
2022/04/05 06:38:20;;;;;;;7.93;7.13;;;7.70;1.00;8.10;99623.00;;;;5110538;28;20454;-79
2022/04/05 06:40:48;;;;;;;8.50;7.80;;;7.80;1.00;8.10;99630.00;;;;5113378;28;20464;-77
2022/04/05 06:43:20;;;;;;;7.43;6.73;;;7.80;1.00;8.10;99632.00;;;;5113335;28;20463;-78
2022/04/05 06:45:50;;;;;;;8.90;8.00;;;7.70;1.00;8.10;99618.00;;;;5116822;28;20442;-77
2022/04/05 06:48:19;;;;;;;9.33;8.43;;;7.70;1.00;8.10;99627.00;;;;5114261;28;20492;-77
2022/04/05 06:50:50;;;;;;;9.10;7.53;;;7.70;1.00;8.20;99637.00;;;;5114567;28;20805;-77
2022/04/05 06:53:19;;;;;;;9.10;8.27;;;7.80;1.00;8.20;99635.00;;;;5112130;28;20541;-77
2022/04/05 06:55:47;;;;;;;9.13;8.33;;;7.80;1.00;8.20;99633.00;;;;5113962;28;20437;-77
2022/04/05 06:58:16;;;;;;;9.50;8.60;;;7.80;1.00;8.30;99633.00;;;;5115780;28;20471;-76
2022/04/05 07:00:44;;;;;;;10.03;9.23;;;7.90;1.00;8.40;99645.00;;;;5124085;28;20514;-77
2022/04/05 07:03:14;;;;;;;8.33;7.53;;;8.00;1.00;8.40;99633.00;;;;5135069;27;20533;-79
2022/04/05 07:05:42;;;;;;;8.20;7.50;;;8.00;1.00;8.50;99640.00;;;;5117908;28;20454;-78
2022/04/05 07:08:11;;;;;;;10.00;9.00;;;8.10;1.00;8.60;99629.00;;;;5123443;27;20469;-77
2022/04/05 07:10:39;;;;;;;8.73;7.83;;;8.20;1.00;8.60;99630.00;;;;5124283;28;20534;-76
2022/04/05 07:13:09;;;;;;;11.20;7.17;;;8.20;1.00;8.60;99628.00;;;;5124157;28;20871;-78
2022/04/05 07:15:37;;;;;;;10.17;9.17;;;8.20;1.00;8.80;99645.00;;;;5116974;28;20446;-78
2022/04/05 07:18:13;;;;;;;8.40;7.60;;;8.30;1.00;8.90;99631.00;;;;5131423;27;20441;-79
2022/04/05 07:20:41;;;;;;;9.13;8.33;;;8.50;1.00;9.00;99637.00;;;;5112543;28;20449;-78
2022/04/05 07:23:10;;;;;;;9.83;8.70;;;8.60;1.00;9.00;99625.00;;;;5106339;28;20465;-77
2022/04/05 07:25:38;;;;;;;9.30;8.30;;;8.60;1.00;9.00;99640.00;;;;5107970;28;20459;-78
2022/04/05 07:28:07;;;;;;;9.30;8.40;;;8.60;1.00;9.00;99624.00;;;;5106992;28;20466;-79
2022/04/05 07:30:35;;;;;;;8.63;7.77;;;8.60;1.00;9.00;99635.00;;;;5103129;28;21002;-77
2022/04/05 07:33:04;;;;;;;9.50;8.60;;;8.60;1.00;8.80;99638.00;;;;5100678;28;20883;-77
2022/04/05 07:35:33;;;;;;;10.07;8.80;;;8.50;1.00;8.70;99644.00;;;;5099595;28;20475;-79
2022/04/05 07:38:02;;;;;;;9.47;8.60;;;8.40;1.00;8.80;99644.00;;;;5102172;28;20488;-78
2022/04/05 07:40:47;;;;;;;10.90;9.80;;;8.40;1.00;8.80;99634.00;;;;5102065;28;20457;-78
2022/04/05 07:43:18;;;;;;;9.83;8.57;;;8.40;1.00;8.80;99617.00;;;;5109624;28;20479;-79
2022/04/05 07:45:49;;;;;;;10.60;8.37;;;8.40;1.00;8.80;99621.00;;;;5110632;28;20453;-80
2022/04/05 07:48:18;;;;;;;10.30;9.20;;;8.40;1.00;8.90;99651.00;;;;5106544;28;20925;-79
2022/04/05 07:50:50;;;;;;;10.73;9.70;;;8.40;1.00;9.00;99642.00;;;;5105693;28;20437;-79
2022/04/05 07:53:18;;;;;;;9.13;8.23;;;8.60;1.00;9.10;99647.00;;;;5099908;28;20465;-78
2022/04/05 07:55:48;;;;;;;10.23;9.23;;;8.70;1.00;9.20;99637.00;;;;5101957;28;20445;-79
2022/04/05 07:58:16;;;;;;;10.30;9.30;;;8.80;1.00;9.20;99647.00;;;;5099686;28;21063;-80
2022/04/05 08:00:44;;;;;;;10.33;9.10;;;8.80;1.00;9.20;99632.00;;;;5098343;28;20485;-81
2022/04/05 08:03:13;;;;;;;10.30;8.90;;;8.80;1.00;9.20;99643.00;;;;5102116;28;20458;-78
2022/04/05 08:05:41;;;;;;;10.10;8.87;;;8.80;1.00;9.30;99639.00;;;;5118733;27;20478;-79
2022/04/05 08:08:11;;;;;;;8.43;7.63;;;8.90;1.00;9.40;99647.00;;;;5102087;28;20448;-80
2022/04/05 08:11:00;;;;;;;9.47;8.47;;;9.00;1.00;9.50;99654.00;;;;5099164;28;20472;-79
2022/04/05 08:13:28;;;;;;;6.20;5.60;;;9.10;1.00;9.50;99635.00;;;;5101092;28;20481;-79
2022/04/05 08:15:57;;;;;;;8.53;6.80;;;9.10;1.00;9.60;99644.00;;;;5103052;28;20518;-79
2022/04/05 08:18:25;;;;;;;8.63;7.23;;;9.20;1.00;9.80;99647.00;;;;5103458;28;20462;-78
2022/04/05 08:20:54;;;;;;;7.00;6.40;;;9.40;1.00;10.00;99642.00;;;;5116647;27;20444;-79
2022/04/05 08:23:24;;;;;;;5.60;5.00;;;9.60;1.00;10.10;99643.00;;;;5103049;28;20468;-79
2022/04/05 08:25:53;;;;;;;6.40;5.80;;;9.60;1.00;10.20;99645.00;;;;5100851;28;20472;-79
2022/04/05 08:28:21;;;;;;;6.20;5.60;;;9.80;1.00;10.40;99634.00;;;;5100921;28;20845;-79
2022/04/05 08:30:49;;;;;;;5.53;5.03;;;10.00;1.00;10.50;99642.00;;;;5097327;28;20449;-83
2022/04/05 08:33:18;;;;;;;6.77;6.10;;;10.20;1.00;10.70;99635.00;;;;5099789;28;20604;-80
2022/04/05 08:35:47;;;;;;;5.20;4.70;;;10.30;1.00;10.70;99638.00;;;;5101057;28;20456;-79
2022/04/05 08:38:15;;;;;;;5.67;4.93;;;10.30;1.00;10.70;99640.00;;;;5105599;28;20450;-81
2022/04/05 08:40:45;;;;;;;5.17;4.40;;;10.30;1.00;10.70;99651.00;;;;5103745;28;20468;-79
2022/04/05 08:43:13;;;;;;;5.90;5.20;;;10.40;1.00;10.90;99646.00;;;;5105037;28;20544;-79
2022/04/05 08:45:55;;;;;;;5.60;5.10;;;10.50;1.00;11.20;99647.00;;;;5102728;28;20552;-80
2022/04/05 08:48:27;;;;;;;5.20;4.70;;;10.80;1.00;11.40;99652.00;;;;5103834;28;20515;-79
2022/04/05 08:50:58;;;;;;;4.67;3.60;;;11.10;1.00;11.50;99649.00;;;;5101272;28;20449;-80
2022/04/05 08:53:28;;;;;;;3.90;3.53;;;11.10;1.00;11.50;99647.00;;;;5099005;28;20486;-81
2022/04/05 08:55:58;;;;;;;4.87;4.00;;;11.20;1.00;11.60;99651.00;;;;5099590;28;20920;-80
2022/04/05 08:58:27;;;;;;;5.13;4.30;;;11.30;1.00;11.60;99625.00;;;;5103363;28;20460;-76
2022/04/05 09:00:55;;;;;;;4.90;4.40;;;11.20;1.00;11.50;99653.00;;;;5107748;28;20465;-78
2022/04/05 09:03:24;;;;;;;4.40;4.00;;;11.00;1.00;11.70;99654.00;;;;5100961;28;20477;-79
2022/04/05 09:05:53;;;;;;;3.93;3.23;;;11.30;1.00;11.80;99657.00;;;;5086476;28;20544;-79
2022/04/05 09:08:24;;;;;;;4.10;3.70;;;11.40;1.00;11.90;99653.00;;;;5111891;28;20469;-78
2022/04/05 09:10:54;;;;;;;3.83;3.53;;;11.40;1.00;11.80;99650.00;;;;5112855;28;20454;-77
2022/04/05 09:13:26;;;;;;;4.27;3.87;;;11.30;1.00;11.70;99662.00;;;;5113167;28;20983;-78
2022/04/05 09:15:58;;;;;;;3.80;3.30;;;11.30;1.00;11.80;99655.00;;;;5117047;28;20463;-78
2022/04/05 09:18:34;;;;;;;4.50;4.10;;;11.30;1.00;11.80;99665.00;;;;5119205;28;20449;-78
2022/04/05 09:21:04;;;;;;;3.40;3.10;;;11.30;1.00;11.70;99658.00;;;;5111491;28;20457;-77
2022/04/05 09:23:35;;;;;;;3.30;3.00;;;11.30;1.00;11.70;99659.00;;;;5112584;28;20456;-79
2022/04/05 09:26:05;;;;;;;4.60;3.50;;;11.30;1.00;11.70;99659.00;;;;5132571;27;20482;-78
2022/04/05 09:28:38;;;;;;;3.30;3.00;;;11.20;1.00;11.90;99649.00;;;;5105378;28;20483;-78
2022/04/05 09:31:09;;;;;;;4.20;3.77;;;11.40;1.00;11.90;99660.00;;;;5090487;28;20492;-77
2022/04/05 09:33:41;;;;;;;4.00;3.50;;;11.50;1.00;12.00;99676.00;;;;5094805;28;20471;-79
2022/04/05 09:36:13;;;;;;;4.00;3.60;;;11.50;1.00;12.00;99670.00;;;;5102820;28;20569;-78
2022/04/05 09:38:44;;;;;;;4.80;3.50;;;11.80;1.00;12.20;99670.00;;;;5103719;28;20536;-78
2022/04/05 09:41:20;;;;;;;3.43;3.10;;;11.70;1.00;12.60;99646.00;;;;5096411;28;20460;-77
2022/04/05 09:43:58;;;;;;;3.63;3.20;;;12.00;1.00;12.70;99653.00;;;;5094695;28;20458;-77
2022/04/05 09:46:29;;;;;;;4.00;3.60;;;12.10;1.00;12.90;99661.00;;;;5096700;28;20470;-78
2022/04/05 09:49:11;;;;;;;2.90;2.60;;;12.30;1.00;12.90;99654.00;;;;5105994;28;20513;-78
2022/04/05 09:51:43;;;;;;;3.20;2.80;;;12.40;1.00;13.00;99656.00;;;;5101690;28;20472;-77
2022/04/05 09:54:27;;;;;;;2.83;2.63;;;12.50;1.00;13.10;99668.00;;;;5099692;28;20526;-78
2022/04/05 09:57:03;;;;;;;3.10;2.40;;;12.60;1.00;13.20;99663.00;;;;5096948;28;20546;-79
2022/04/05 09:59:42;;;;;;;3.80;3.23;;;12.80;1.00;13.10;99658.00;;;;5097457;28;20472;-81
2022/04/05 10:02:14;;;;;;;5.90;3.10;;;12.80;1.00;13.10;99662.00;;;;5100636;28;20463;-78
2022/04/05 10:05:05;;;;;;;4.13;3.73;;;12.70;1.00;13.10;99677.00;;;;5093358;28;20545;-81
2022/04/05 10:07:35;;;;;;;3.03;2.70;;;12.70;1.00;13.40;99655.00;;;;5090635;28;21066;-78
2022/04/05 10:10:08;;;;;;;2.90;2.60;;;12.90;1.00;13.40;99669.00;;;;5092306;28;20465;-79
2022/04/05 10:12:43;;;;;;;4.00;2.70;;;12.90;1.00;13.20;99662.00;;;;5093624;28;20461;-79
2022/04/05 10:15:12;;;;;;;3.47;3.17;;;12.80;1.00;13.30;99664.00;;;;5097028;28;20942;-79
2022/04/05 10:17:43;;;;;;;3.03;2.73;;;12.80;1.00;13.60;99662.00;;;;5097302;28;20977;-78
2022/04/05 10:20:14;;;;;;;4.40;4.00;;;13.20;1.00;13.80;99675.00;;;;5095476;28;20831;-79
2022/04/05 10:22:42;;;;;;;3.70;3.40;;;13.40;1.00;14.10;99662.00;;;;5098424;27;20460;-84
2022/04/05 10:25:11;;;;;;;5.90;3.13;;;13.70;1.00;14.20;99647.00;;;;5116390;28;20441;-83
2022/04/05 10:27:40;;;;;;;2.87;2.67;;;13.80;1.00;14.00;99652.00;;;;5117109;28;20454;-79
2022/04/05 10:30:18;;;;;;;3.50;3.20;;;13.60;1.00;13.90;99666.00;;;;5101574;28;20445;-79
2022/04/05 10:32:55;;;;;;;3.23;2.93;;;13.30;1.00;13.90;99673.00;;;;5099651;28;20495;-79
2022/04/05 10:35:26;;;;;;;3.20;2.90;;;13.50;1.00;14.10;99659.00;;;;5098290;28;20522;-79
2022/04/05 10:38:12;;;;;;;3.27;2.90;;;13.60;1.00;14.50;99652.00;;;;5095441;28;20469;-80
2022/04/05 10:40:41;;;;;;;8.60;2.70;;;14.10;1.00;14.50;99656.00;;;;5101046;28;20444;-79
2022/04/05 10:43:18;;;;;;;3.20;2.83;;;14.10;1.00;14.60;99652.00;;;;5097871;28;20446;-82
2022/04/05 10:45:48;;;;;;;3.20;2.90;;;14.10;1.00;14.60;99660.00;;;;5091999;28;20544;-78
2022/04/05 10:48:20;;;;;;;2.90;2.30;;;14.10;1.00;14.60;99653.00;;;;5090742;28;20461;-78
2022/04/05 10:51:30;;;;;;;3.00;2.63;;;14.10;1.00;14.40;99637.00;;;;5092660;28;20492;-80
2022/04/05 10:54:20;;;;;;;3.37;3.07;;;14.00;1.00;14.80;99640.00;;;;5099483;28;20511;-80
2022/04/05 10:57:17;;;;;;;3.40;3.10;;;14.20;1.00;14.80;99648.00;;;;5107341;28;20519;-80
2022/04/05 10:59:51;;;;;;;3.47;3.17;;;14.40;1.00;14.70;99647.00;;;;5105251;28;20528;-79
2022/04/05 11:02:36;;;;;;;6.33;2.97;;;14.20;1.00;15.00;99647.00;;;;5102558;28;20457;-81
2022/04/05 11:05:42;;;;;;;3.77;3.37;;;14.60;1.00;15.20;99656.00;;;;5101426;28;20544;-78
2022/04/05 11:08:19;;;;;;;4.00;2.97;;;14.80;1.00;15.50;99648.00;;;;5115243;27;20858;-79
2022/04/05 11:11:00;;;;;;;4.27;2.53;;;15.10;1.00;15.40;99648.00;;;;5105128;28;20464;-79
2022/04/05 11:13:46;;;;;;;3.10;2.80;;;15.00;1.00;15.20;99648.00;;;;5103506;28;20470;-80
2022/04/05 11:16:15;;;;;;;4.97;2.80;;;14.80;1.00;15.30;99647.00;;;;5100401;28;20488;-79
2022/04/05 11:18:45;;;;;;;2.90;2.53;;;15.00;1.00;15.20;99647.00;;;;5096941;28;20449;-80
2022/04/05 11:21:14;;;;;;;3.87;3.13;;;14.90;1.00;14.90;99661.00;;;;5099846;28;20476;-80
2022/04/05 11:23:51;;;;;;;3.20;2.77;;;14.70;1.00;14.60;99648.00;;;;5097764;28;20495;-79
2022/04/05 11:26:41;;;;;;;3.77;3.47;;;14.30;1.00;14.20;99659.00;;;;5095481;28;20638;-78
2022/04/05 11:29:22;;;;;;;3.40;3.10;;;13.80;1.00;14.30;99633.00;;;;5097686;28;20926;-79